sensor_id;sensor_type;location;lat;lon;timestamp;P1;durP1;ratioP1;P2;durP2;ratioP2
43817;SDS011;29868;47.360;18.984;2023-02-12T00:01:47;20.20;;;9.27;;
43817;SDS011;29868;47.360;18.984;2023-02-12T00:04:13;24.05;;;11.18;;
43817;SDS011;29868;47.360;18.984;2023-02-12T00:06:38;23.27;;;10.63;;
43817;SDS011;29868;47.360;18.984;2023-02-12T00:09:04;23.90;;;11.02;;
43817;SDS011;29868;47.360;18.984;2023-02-12T00:11:29;21.88;;;10.75;;
43817;SDS011;29868;47.360;18.984;2023-02-12T00:13:55;20.42;;;10.13;;
43817;SDS011;29868;47.360;18.984;2023-02-12T00:16:22;21.42;;;10.55;;
43817;SDS011;29868;47.360;18.984;2023-02-12T00:18:53;22.10;;;9.88;;
43817;SDS011;29868;47.360;18.984;2023-02-12T00:21:20;21.13;;;10.38;;
43817;SDS011;29868;47.360;18.984;2023-02-12T00:23:46;22.63;;;10.45;;
43817;SDS011;29868;47.360;18.984;2023-02-12T00:26:12;20.15;;;10.40;;
43817;SDS011;29868;47.360;18.984;2023-02-12T00:28:40;21.33;;;11.73;;
43817;SDS011;29868;47.360;18.984;2023-02-12T00:31:15;22.42;;;12.27;;
43817;SDS011;29868;47.360;18.984;2023-02-12T00:33:43;23.70;;;11.30;;
43817;SDS011;29868;47.360;18.984;2023-02-12T00:36:09;18.85;;;9.25;;
43817;SDS011;29868;47.360;18.984;2023-02-12T00:38:41;25.95;;;11.57;;
43817;SDS011;29868;47.360;18.984;2023-02-12T00:41:07;20.20;;;10.82;;
43817;SDS011;29868;47.360;18.984;2023-02-12T00:43:32;23.60;;;10.93;;
43817;SDS011;29868;47.360;18.984;2023-02-12T00:45:58;23.23;;;11.45;;
43817;SDS011;29868;47.360;18.984;2023-02-12T00:48:23;21.40;;;10.35;;
43817;SDS011;29868;47.360;18.984;2023-02-12T00:50:49;22.20;;;12.15;;
43817;SDS011;29868;47.360;18.984;2023-02-12T00:53:15;21.77;;;8.43;;
43817;SDS011;29868;47.360;18.984;2023-02-12T00:55:41;22.80;;;11.15;;
43817;SDS011;29868;47.360;18.984;2023-02-12T00:58:06;24.73;;;11.82;;
43817;SDS011;29868;47.360;18.984;2023-02-12T01:00:32;22.88;;;11.20;;
43817;SDS011;29868;47.360;18.984;2023-02-12T01:02:57;21.50;;;9.65;;
43817;SDS011;29868;47.360;18.984;2023-02-12T01:05:23;22.17;;;11.23;;
43817;SDS011;29868;47.360;18.984;2023-02-12T01:07:49;21.58;;;11.48;;
43817;SDS011;29868;47.360;18.984;2023-02-12T01:10:15;23.85;;;12.40;;
43817;SDS011;29868;47.360;18.984;2023-02-12T01:12:41;18.98;;;9.05;;
43817;SDS011;29868;47.360;18.984;2023-02-12T01:15:06;21.58;;;10.18;;
43817;SDS011;29868;47.360;18.984;2023-02-12T01:17:34;23.58;;;11.82;;
43817;SDS011;29868;47.360;18.984;2023-02-12T01:20:00;23.10;;;11.77;;
43817;SDS011;29868;47.360;18.984;2023-02-12T01:22:26;21.58;;;11.90;;
43817;SDS011;29868;47.360;18.984;2023-02-12T01:24:51;24.77;;;13.02;;
43817;SDS011;29868;47.360;18.984;2023-02-12T01:27:17;26.23;;;13.00;;
43817;SDS011;29868;47.360;18.984;2023-02-12T01:29:42;21.75;;;11.25;;
43817;SDS011;29868;47.360;18.984;2023-02-12T01:32:09;25.48;;;12.70;;
43817;SDS011;29868;47.360;18.984;2023-02-12T01:34:35;21.35;;;11.30;;
43817;SDS011;29868;47.360;18.984;2023-02-12T01:37:01;23.63;;;12.52;;
43817;SDS011;29868;47.360;18.984;2023-02-12T01:39:26;24.27;;;12.32;;
43817;SDS011;29868;47.360;18.984;2023-02-12T01:41:52;24.17;;;12.00;;
43817;SDS011;29868;47.360;18.984;2023-02-12T01:44:18;20.95;;;11.32;;
43817;SDS011;29868;47.360;18.984;2023-02-12T01:46:46;23.30;;;11.43;;
43817;SDS011;29868;47.360;18.984;2023-02-12T01:49:16;22.42;;;11.50;;
43817;SDS011;29868;47.360;18.984;2023-02-12T01:51:45;24.63;;;12.65;;
43817;SDS011;29868;47.360;18.984;2023-02-12T01:54:15;18.05;;;8.45;;
43817;SDS011;29868;47.360;18.984;2023-02-12T01:56:44;23.38;;;11.20;;
43817;SDS011;29868;47.360;18.984;2023-02-12T01:59:09;22.58;;;10.30;;
43817;SDS011;29868;47.360;18.984;2023-02-12T02:01:36;23.77;;;11.57;;
43817;SDS011;29868;47.360;18.984;2023-02-12T02:04:22;27.55;;;12.73;;
43817;SDS011;29868;47.360;18.984;2023-02-12T02:06:58;22.25;;;12.23;;
43817;SDS011;29868;47.360;18.984;2023-02-12T02:09:27;23.42;;;11.23;;
43817;SDS011;29868;47.360;18.984;2023-02-12T02:11:54;26.02;;;12.57;;
43817;SDS011;29868;47.360;18.984;2023-02-12T02:14:38;22.80;;;11.77;;
43817;SDS011;29868;47.360;18.984;2023-02-12T02:22:40;20.35;;;10.70;;
43817;SDS011;29868;47.360;18.984;2023-02-12T02:38:50;26.20;;;12.98;;
43817;SDS011;29868;47.360;18.984;2023-02-12T02:42:26;24.48;;;12.75;;
43817;SDS011;29868;47.360;18.984;2023-02-12T02:44:50;24.38;;;12.80;;
43817;SDS011;29868;47.360;18.984;2023-02-12T02:47:14;25.42;;;12.68;;
43817;SDS011;29868;47.360;18.984;2023-02-12T02:49:47;22.67;;;11.65;;
43817;SDS011;29868;47.360;18.984;2023-02-12T02:52:19;21.83;;;10.32;;
43817;SDS011;29868;47.360;18.984;2023-02-12T02:54:54;24.77;;;12.13;;
43817;SDS011;29868;47.360;18.984;2023-02-12T02:57:27;26.80;;;13.13;;
43817;SDS011;29868;47.360;18.984;2023-02-12T03:00:00;27.60;;;12.75;;
43817;SDS011;29868;47.360;18.984;2023-02-12T03:02:32;25.48;;;14.30;;
43817;SDS011;29868;47.360;18.984;2023-02-12T03:07:33;26.35;;;12.68;;
43817;SDS011;29868;47.360;18.984;2023-02-12T03:10:25;26.20;;;13.07;;
43817;SDS011;29868;47.360;18.984;2023-02-12T03:13:01;21.92;;;11.00;;
43817;SDS011;29868;47.360;18.984;2023-02-12T03:15:44;27.70;;;14.45;;
43817;SDS011;29868;47.360;18.984;2023-02-12T03:18:18;25.23;;;13.52;;
43817;SDS011;29868;47.360;18.984;2023-02-12T03:20:49;26.10;;;13.90;;
43817;SDS011;29868;47.360;18.984;2023-02-12T03:23:21;28.15;;;13.60;;
43817;SDS011;29868;47.360;18.984;2023-02-12T03:28:26;24.92;;;12.75;;
43817;SDS011;29868;47.360;18.984;2023-02-12T03:31:11;27.73;;;13.38;;
43817;SDS011;29868;47.360;18.984;2023-02-12T03:39:47;25.13;;;13.80;;
43817;SDS011;29868;47.360;18.984;2023-02-12T03:42:23;28.90;;;14.65;;
43817;SDS011;29868;47.360;18.984;2023-02-12T03:44:58;25.15;;;13.18;;
43817;SDS011;29868;47.360;18.984;2023-02-12T03:47:45;26.95;;;13.35;;
43817;SDS011;29868;47.360;18.984;2023-02-12T03:50:30;26.77;;;13.57;;
43817;SDS011;29868;47.360;18.984;2023-02-12T03:53:03;28.00;;;14.23;;
43817;SDS011;29868;47.360;18.984;2023-02-12T03:55:30;24.42;;;12.70;;
43817;SDS011;29868;47.360;18.984;2023-02-12T03:58:00;26.25;;;12.27;;
43817;SDS011;29868;47.360;18.984;2023-02-12T04:00:27;29.02;;;13.48;;
43817;SDS011;29868;47.360;18.984;2023-02-12T04:02:53;28.55;;;14.48;;
43817;SDS011;29868;47.360;18.984;2023-02-12T04:05:25;30.25;;;15.30;;
43817;SDS011;29868;47.360;18.984;2023-02-12T04:07:53;29.42;;;14.95;;
43817;SDS011;29868;47.360;18.984;2023-02-12T04:10:21;29.15;;;15.23;;
43817;SDS011;29868;47.360;18.984;2023-02-12T04:16:21;27.48;;;13.77;;
43817;SDS011;29868;47.360;18.984;2023-02-12T04:18:53;28.13;;;14.93;;
43817;SDS011;29868;47.360;18.984;2023-02-12T04:29:31;28.77;;;14.93;;
43817;SDS011;29868;47.360;18.984;2023-02-12T04:37:23;28.02;;;14.80;;
43817;SDS011;29868;47.360;18.984;2023-02-12T04:39:52;26.25;;;13.95;;
43817;SDS011;29868;47.360;18.984;2023-02-12T04:42:18;29.33;;;15.57;;
43817;SDS011;29868;47.360;18.984;2023-02-12T04:44:45;27.73;;;14.82;;
43817;SDS011;29868;47.360;18.984;2023-02-12T04:47:11;32.35;;;15.82;;
43817;SDS011;29868;47.360;18.984;2023-02-12T04:49:39;28.13;;;15.38;;
43817;SDS011;29868;47.360;18.984;2023-02-12T04:52:05;32.70;;;15.93;;
43817;SDS011;29868;47.360;18.984;2023-02-12T04:54:31;34.10;;;15.98;;
43817;SDS011;29868;47.360;18.984;2023-02-12T04:56:56;30.15;;;15.52;;
43817;SDS011;29868;47.360;18.984;2023-02-12T04:59:22;28.85;;;15.32;;
43817;SDS011;29868;47.360;18.984;2023-02-12T05:01:47;30.13;;;15.20;;
43817;SDS011;29868;47.360;18.984;2023-02-12T05:04:14;30.15;;;14.93;;
43817;SDS011;29868;47.360;18.984;2023-02-12T05:06:41;29.92;;;15.25;;
43817;SDS011;29868;47.360;18.984;2023-02-12T05:09:09;26.30;;;14.23;;
43817;SDS011;29868;47.360;18.984;2023-02-12T05:11:38;30.85;;;16.30;;
43817;SDS011;29868;47.360;18.984;2023-02-12T05:14:03;33.95;;;16.27;;
43817;SDS011;29868;47.360;18.984;2023-02-12T05:16:28;29.88;;;15.88;;
43817;SDS011;29868;47.360;18.984;2023-02-12T05:18:54;29.00;;;15.88;;
43817;SDS011;29868;47.360;18.984;2023-02-12T05:21:19;28.33;;;14.70;;
43817;SDS011;29868;47.360;18.984;2023-02-12T05:23:45;30.77;;;15.25;;
43817;SDS011;29868;47.360;18.984;2023-02-12T05:26:15;31.63;;;15.20;;
43817;SDS011;29868;47.360;18.984;2023-02-12T05:28:42;28.83;;;15.35;;
43817;SDS011;29868;47.360;18.984;2023-02-12T05:31:13;28.88;;;15.65;;
43817;SDS011;29868;47.360;18.984;2023-02-12T05:33:41;30.10;;;14.13;;
43817;SDS011;29868;47.360;18.984;2023-02-12T05:36:09;27.85;;;14.57;;
43817;SDS011;29868;47.360;18.984;2023-02-12T05:38:36;35.00;;;19.20;;
43817;SDS011;29868;47.360;18.984;2023-02-12T05:41:06;38.00;;;20.92;;
43817;SDS011;29868;47.360;18.984;2023-02-12T05:43:33;37.17;;;20.48;;
43817;SDS011;29868;47.360;18.984;2023-02-12T05:46:00;30.45;;;16.42;;
43817;SDS011;29868;47.360;18.984;2023-02-12T05:48:27;30.48;;;16.02;;
43817;SDS011;29868;47.360;18.984;2023-02-12T05:50:53;29.20;;;15.55;;
43817;SDS011;29868;47.360;18.984;2023-02-12T05:53:19;30.85;;;15.80;;
43817;SDS011;29868;47.360;18.984;2023-02-12T05:55:45;29.15;;;16.15;;
43817;SDS011;29868;47.360;18.984;2023-02-12T05:58:10;29.30;;;15.18;;
43817;SDS011;29868;47.360;18.984;2023-02-12T06:00:36;31.15;;;15.50;;
43817;SDS011;29868;47.360;18.984;2023-02-12T06:03:01;32.67;;;16.73;;
43817;SDS011;29868;47.360;18.984;2023-02-12T06:05:27;32.65;;;16.92;;
43817;SDS011;29868;47.360;18.984;2023-02-12T06:07:52;34.00;;;17.88;;
43817;SDS011;29868;47.360;18.984;2023-02-12T06:10:17;30.80;;;15.35;;
43817;SDS011;29868;47.360;18.984;2023-02-12T06:12:43;31.02;;;16.27;;
43817;SDS011;29868;47.360;18.984;2023-02-12T06:15:08;32.38;;;16.17;;
43817;SDS011;29868;47.360;18.984;2023-02-12T06:17:34;32.92;;;16.05;;
43817;SDS011;29868;47.360;18.984;2023-02-12T06:20:00;34.20;;;17.17;;
43817;SDS011;29868;47.360;18.984;2023-02-12T06:22:26;32.53;;;15.48;;
43817;SDS011;29868;47.360;18.984;2023-02-12T06:24:52;32.65;;;17.05;;
43817;SDS011;29868;47.360;18.984;2023-02-12T06:27:17;36.05;;;18.77;;
43817;SDS011;29868;47.360;18.984;2023-02-12T06:29:43;48.85;;;27.77;;
43817;SDS011;29868;47.360;18.984;2023-02-12T06:32:09;48.33;;;27.50;;
43817;SDS011;29868;47.360;18.984;2023-02-12T06:34:37;39.88;;;22.33;;
43817;SDS011;29868;47.360;18.984;2023-02-12T06:37:03;35.08;;;18.75;;
43817;SDS011;29868;47.360;18.984;2023-02-12T06:39:28;28.77;;;14.32;;
43817;SDS011;29868;47.360;18.984;2023-02-12T06:41:54;28.30;;;15.40;;
43817;SDS011;29868;47.360;18.984;2023-02-12T06:44:19;32.15;;;16.70;;
43817;SDS011;29868;47.360;18.984;2023-02-12T06:46:44;30.35;;;16.42;;
43817;SDS011;29868;47.360;18.984;2023-02-12T06:49:10;31.75;;;16.55;;
43817;SDS011;29868;47.360;18.984;2023-02-12T06:51:38;31.98;;;15.50;;
43817;SDS011;29868;47.360;18.984;2023-02-12T06:54:09;32.00;;;16.15;;
43817;SDS011;29868;47.360;18.984;2023-02-12T06:56:37;29.15;;;15.68;;
43817;SDS011;29868;47.360;18.984;2023-02-12T06:59:03;30.95;;;15.85;;
43817;SDS011;29868;47.360;18.984;2023-02-12T07:01:29;30.55;;;15.38;;
43817;SDS011;29868;47.360;18.984;2023-02-12T07:03:56;31.98;;;16.27;;
43817;SDS011;29868;47.360;18.984;2023-02-12T07:06:23;37.58;;;17.45;;
43817;SDS011;29868;47.360;18.984;2023-02-12T07:08:50;35.08;;;17.92;;
43817;SDS011;29868;47.360;18.984;2023-02-12T07:11:16;32.42;;;17.05;;
43817;SDS011;29868;47.360;18.984;2023-02-12T07:13:42;31.27;;;16.38;;
43817;SDS011;29868;47.360;18.984;2023-02-12T07:16:12;33.95;;;16.52;;
43817;SDS011;29868;47.360;18.984;2023-02-12T07:18:39;31.92;;;15.85;;
43817;SDS011;29868;47.360;18.984;2023-02-12T07:21:05;29.60;;;15.85;;
43817;SDS011;29868;47.360;18.984;2023-02-12T07:23:32;28.83;;;15.25;;
43817;SDS011;29868;47.360;18.984;2023-02-12T07:25:58;29.27;;;15.77;;
43817;SDS011;29868;47.360;18.984;2023-02-12T07:28:31;30.13;;;15.85;;
43817;SDS011;29868;47.360;18.984;2023-02-12T07:30:58;30.40;;;17.17;;
43817;SDS011;29868;47.360;18.984;2023-02-12T07:33:25;23.65;;;14.32;;
43817;SDS011;29868;47.360;18.984;2023-02-12T07:35:50;25.20;;;14.82;;
43817;SDS011;29868;47.360;18.984;2023-02-12T07:38:15;27.48;;;14.18;;
43817;SDS011;29868;47.360;18.984;2023-02-12T07:40:41;24.30;;;12.88;;
43817;SDS011;29868;47.360;18.984;2023-02-12T07:43:06;23.58;;;12.70;;
43817;SDS011;29868;47.360;18.984;2023-02-12T07:45:32;22.98;;;13.75;;
43817;SDS011;29868;47.360;18.984;2023-02-12T07:47:57;24.33;;;13.25;;
43817;SDS011;29868;47.360;18.984;2023-02-12T07:50:23;23.48;;;13.95;;
43817;SDS011;29868;47.360;18.984;2023-02-12T07:52:48;22.85;;;12.57;;
43817;SDS011;29868;47.360;18.984;2023-02-12T07:55:15;22.70;;;12.88;;
43817;SDS011;29868;47.360;18.984;2023-02-12T07:57:41;25.17;;;13.95;;
43817;SDS011;29868;47.360;18.984;2023-02-12T08:00:06;23.48;;;12.50;;
43817;SDS011;29868;47.360;18.984;2023-02-12T08:02:32;22.92;;;12.55;;
43817;SDS011;29868;47.360;18.984;2023-02-12T08:04:58;24.45;;;13.40;;
43817;SDS011;29868;47.360;18.984;2023-02-12T08:07:24;23.75;;;12.32;;
43817;SDS011;29868;47.360;18.984;2023-02-12T08:09:49;23.50;;;12.77;;
43817;SDS011;29868;47.360;18.984;2023-02-12T08:12:15;21.20;;;11.80;;
43817;SDS011;29868;47.360;18.984;2023-02-12T08:14:41;19.90;;;11.27;;
43817;SDS011;29868;47.360;18.984;2023-02-12T08:17:06;19.13;;;11.23;;
43817;SDS011;29868;47.360;18.984;2023-02-12T08:19:32;21.20;;;11.73;;
43817;SDS011;29868;47.360;18.984;2023-02-12T08:21:59;22.20;;;13.13;;
43817;SDS011;29868;47.360;18.984;2023-02-12T08:24:27;23.40;;;13.27;;
43817;SDS011;29868;47.360;18.984;2023-02-12T08:26:53;21.15;;;12.90;;
43817;SDS011;29868;47.360;18.984;2023-02-12T08:29:20;22.60;;;13.00;;
43817;SDS011;29868;47.360;18.984;2023-02-12T08:31:48;20.73;;;12.77;;
43817;SDS011;29868;47.360;18.984;2023-02-12T08:34:20;21.08;;;12.88;;
43817;SDS011;29868;47.360;18.984;2023-02-12T08:36:47;23.08;;;12.65;;
43817;SDS011;29868;47.360;18.984;2023-02-12T08:39:14;20.92;;;12.07;;
43817;SDS011;29868;47.360;18.984;2023-02-12T08:41:41;24.75;;;13.25;;
43817;SDS011;29868;47.360;18.984;2023-02-12T08:44:08;21.08;;;12.00;;
43817;SDS011;29868;47.360;18.984;2023-02-12T08:46:35;24.80;;;13.50;;
43817;SDS011;29868;47.360;18.984;2023-02-12T08:49:03;22.73;;;12.57;;
43817;SDS011;29868;47.360;18.984;2023-02-12T08:51:34;21.15;;;11.95;;
43817;SDS011;29868;47.360;18.984;2023-02-12T08:54:03;22.80;;;12.00;;
43817;SDS011;29868;47.360;18.984;2023-02-12T08:56:31;20.48;;;11.82;;
43817;SDS011;29868;47.360;18.984;2023-02-12T08:58:58;22.00;;;12.38;;
43817;SDS011;29868;47.360;18.984;2023-02-12T09:01:27;26.80;;;13.15;;
43817;SDS011;29868;47.360;18.984;2023-02-12T09:03:54;27.05;;;13.45;;
43817;SDS011;29868;47.360;18.984;2023-02-12T09:06:20;26.35;;;13.68;;
43817;SDS011;29868;47.360;18.984;2023-02-12T09:08:47;18.95;;;11.52;;
43817;SDS011;29868;47.360;18.984;2023-02-12T09:11:17;18.85;;;11.18;;
43817;SDS011;29868;47.360;18.984;2023-02-12T09:13:45;20.40;;;12.00;;
43817;SDS011;29868;47.360;18.984;2023-02-12T09:16:11;20.77;;;11.57;;
43817;SDS011;29868;47.360;18.984;2023-02-12T09:18:38;20.52;;;11.45;;
43817;SDS011;29868;47.360;18.984;2023-02-12T09:21:08;18.70;;;10.80;;
43817;SDS011;29868;47.360;18.984;2023-02-12T09:23:36;19.60;;;11.20;;
43817;SDS011;29868;47.360;18.984;2023-02-12T09:26:05;18.48;;;10.68;;
43817;SDS011;29868;47.360;18.984;2023-02-12T09:28:32;20.50;;;11.80;;
43817;SDS011;29868;47.360;18.984;2023-02-12T09:31:03;17.48;;;10.77;;
43817;SDS011;29868;47.360;18.984;2023-02-12T09:33:31;19.08;;;10.77;;
43817;SDS011;29868;47.360;18.984;2023-02-12T09:36:04;16.13;;;10.50;;
43817;SDS011;29868;47.360;18.984;2023-02-12T09:38:35;17.70;;;10.75;;
43817;SDS011;29868;47.360;18.984;2023-02-12T09:43:49;19.27;;;10.73;;
43817;SDS011;29868;47.360;18.984;2023-02-12T09:46:28;17.83;;;10.82;;
43817;SDS011;29868;47.360;18.984;2023-02-12T09:51:29;17.40;;;10.53;;
43817;SDS011;29868;47.360;18.984;2023-02-12T09:54:00;16.92;;;10.07;;
43817;SDS011;29868;47.360;18.984;2023-02-12T09:56:32;18.95;;;10.80;;
43817;SDS011;29868;47.360;18.984;2023-02-12T09:59:00;17.38;;;10.48;;
43817;SDS011;29868;47.360;18.984;2023-02-12T10:01:29;17.58;;;10.23;;
43817;SDS011;29868;47.360;18.984;2023-02-12T10:03:54;17.60;;;10.43;;
43817;SDS011;29868;47.360;18.984;2023-02-12T10:06:21;16.92;;;10.05;;
43817;SDS011;29868;47.360;18.984;2023-02-12T10:11:28;14.65;;;9.35;;
43817;SDS011;29868;47.360;18.984;2023-02-12T10:14:08;14.50;;;9.82;;
43817;SDS011;29868;47.360;18.984;2023-02-12T10:17:22;18.38;;;10.18;;
43817;SDS011;29868;47.360;18.984;2023-02-12T10:25:29;16.23;;;9.95;;
43817;SDS011;29868;47.360;18.984;2023-02-12T10:28:13;15.73;;;9.73;;
43817;SDS011;29868;47.360;18.984;2023-02-12T10:30:53;16.90;;;9.85;;
43817;SDS011;29868;47.360;18.984;2023-02-12T10:33:26;17.33;;;9.82;;
43817;SDS011;29868;47.360;18.984;2023-02-12T10:35:58;18.02;;;10.88;;
43817;SDS011;29868;47.360;18.984;2023-02-12T10:41:00;17.75;;;10.57;;
43817;SDS011;29868;47.360;18.984;2023-02-12T10:43:26;17.85;;;11.35;;
43817;SDS011;29868;47.360;18.984;2023-02-12T10:45:53;21.05;;;11.90;;
43817;SDS011;29868;47.360;18.984;2023-02-12T10:48:23;16.60;;;10.85;;
43817;SDS011;29868;47.360;18.984;2023-02-12T10:53:36;19.25;;;10.95;;
43817;SDS011;29868;47.360;18.984;2023-02-12T10:58:39;18.80;;;11.20;;
43817;SDS011;29868;47.360;18.984;2023-02-12T11:01:16;20.38;;;11.32;;
43817;SDS011;29868;47.360;18.984;2023-02-12T11:03:46;17.52;;;10.77;;
43817;SDS011;29868;47.360;18.984;2023-02-12T11:06:16;17.80;;;10.93;;
43817;SDS011;29868;47.360;18.984;2023-02-12T11:08:46;20.50;;;11.52;;
43817;SDS011;29868;47.360;18.984;2023-02-12T11:11:13;18.17;;;11.40;;
43817;SDS011;29868;47.360;18.984;2023-02-12T11:16:31;15.38;;;9.98;;
43817;SDS011;29868;47.360;18.984;2023-02-12T11:19:06;16.63;;;10.20;;
43817;SDS011;29868;47.360;18.984;2023-02-12T11:21:35;16.40;;;10.35;;
43817;SDS011;29868;47.360;18.984;2023-02-12T11:24:20;16.50;;;10.50;;
43817;SDS011;29868;47.360;18.984;2023-02-12T11:26:59;16.77;;;10.95;;
43817;SDS011;29868;47.360;18.984;2023-02-12T11:29:44;17.42;;;10.75;;
43817;SDS011;29868;47.360;18.984;2023-02-12T11:32:16;17.15;;;10.73;;
43817;SDS011;29868;47.360;18.984;2023-02-12T11:34:43;16.75;;;10.50;;
43817;SDS011;29868;47.360;18.984;2023-02-12T11:37:17;16.52;;;10.77;;
43817;SDS011;29868;47.360;18.984;2023-02-12T11:39:47;18.02;;;11.00;;
43817;SDS011;29868;47.360;18.984;2023-02-12T11:42:19;16.95;;;10.60;;
43817;SDS011;29868;47.360;18.984;2023-02-12T11:44:54;16.35;;;10.40;;
43817;SDS011;29868;47.360;18.984;2023-02-12T11:47:23;17.75;;;11.38;;
43817;SDS011;29868;47.360;18.984;2023-02-12T11:50:36;17.35;;;10.63;;
43817;SDS011;29868;47.360;18.984;2023-02-12T11:52:49;20.83;;;11.75;;
43817;SDS011;29868;47.360;18.984;2023-02-12T11:55:27;16.52;;;10.43;;
43817;SDS011;29868;47.360;18.984;2023-02-12T12:00:34;19.73;;;11.38;;
43817;SDS011;29868;47.360;18.984;2023-02-12T12:03:10;19.98;;;11.98;;
43817;SDS011;29868;47.360;18.984;2023-02-12T12:05:42;20.65;;;12.90;;
43817;SDS011;29868;47.360;18.984;2023-02-12T12:08:19;20.90;;;11.82;;
43817;SDS011;29868;47.360;18.984;2023-02-12T12:13:16;16.65;;;10.52;;
43817;SDS011;29868;47.360;18.984;2023-02-12T12:15:48;21.00;;;11.30;;
43817;SDS011;29868;47.360;18.984;2023-02-12T12:26:49;16.17;;;10.75;;
43817;SDS011;29868;47.360;18.984;2023-02-12T12:32:05;19.92;;;11.75;;
43817;SDS011;29868;47.360;18.984;2023-02-12T12:34:31;17.80;;;11.13;;
43817;SDS011;29868;47.360;18.984;2023-02-12T12:40:02;21.33;;;12.50;;
43817;SDS011;29868;47.360;18.984;2023-02-12T12:45:55;21.70;;;12.27;;
43817;SDS011;29868;47.360;18.984;2023-02-12T12:48:47;19.98;;;12.05;;
43817;SDS011;29868;47.360;18.984;2023-02-12T13:10:19;22.85;;;15.35;;
43817;SDS011;29868;47.360;18.984;2023-02-12T13:18:11;20.23;;;11.82;;
43817;SDS011;29868;47.360;18.984;2023-02-12T13:28:55;21.15;;;12.88;;
43817;SDS011;29868;47.360;18.984;2023-02-12T13:31:44;23.05;;;15.48;;
43817;SDS011;29868;47.360;18.984;2023-02-12T13:34:14;25.15;;;13.50;;
43817;SDS011;29868;47.360;18.984;2023-02-12T13:36:42;18.58;;;12.15;;
43817;SDS011;29868;47.360;18.984;2023-02-12T13:39:17;22.20;;;13.27;;
43817;SDS011;29868;47.360;18.984;2023-02-12T13:44:59;17.38;;;10.65;;
43817;SDS011;29868;47.360;18.984;2023-02-12T13:50:40;17.15;;;11.00;;
43817;SDS011;29868;47.360;18.984;2023-02-12T14:01:08;22.35;;;13.07;;
43817;SDS011;29868;47.360;18.984;2023-02-12T14:03:36;18.73;;;10.93;;
43817;SDS011;29868;47.360;18.984;2023-02-12T14:06:20;14.52;;;8.55;;
43817;SDS011;29868;47.360;18.984;2023-02-12T14:08:47;19.83;;;11.63;;
43817;SDS011;29868;47.360;18.984;2023-02-12T14:11:17;34.80;;;19.45;;
43817;SDS011;29868;47.360;18.984;2023-02-12T14:13:59;37.03;;;20.92;;
43817;SDS011;29868;47.360;18.984;2023-02-12T14:19:35;42.03;;;22.30;;
43817;SDS011;29868;47.360;18.984;2023-02-12T14:21:57;46.80;;;27.70;;
43817;SDS011;29868;47.360;18.984;2023-02-12T14:27:04;45.25;;;24.67;;
43817;SDS011;29868;47.360;18.984;2023-02-12T14:29:58;47.67;;;25.00;;
43817;SDS011;29868;47.360;18.984;2023-02-12T14:54:15;61.15;;;38.85;;
43817;SDS011;29868;47.360;18.984;2023-02-12T14:56:50;60.50;;;34.63;;
43817;SDS011;29868;47.360;18.984;2023-02-12T14:59:18;54.70;;;31.55;;
43817;SDS011;29868;47.360;18.984;2023-02-12T15:01:46;47.83;;;27.10;;
43817;SDS011;29868;47.360;18.984;2023-02-12T15:04:18;46.45;;;27.80;;
43817;SDS011;29868;47.360;18.984;2023-02-12T15:07:08;47.90;;;28.02;;
43817;SDS011;29868;47.360;18.984;2023-02-12T15:09:49;39.33;;;23.08;;
43817;SDS011;29868;47.360;18.984;2023-02-12T15:14:52;49.83;;;29.10;;
43817;SDS011;29868;47.360;18.984;2023-02-12T15:17:46;63.72;;;39.63;;
43817;SDS011;29868;47.360;18.984;2023-02-12T15:20:22;64.90;;;39.35;;
43817;SDS011;29868;47.360;18.984;2023-02-12T15:23:19;46.78;;;25.85;;
43817;SDS011;29868;47.360;18.984;2023-02-12T15:25:58;46.92;;;25.80;;
43817;SDS011;29868;47.360;18.984;2023-02-12T15:28:27;42.08;;;25.15;;
43817;SDS011;29868;47.360;18.984;2023-02-12T15:30:57;50.33;;;26.80;;
43817;SDS011;29868;47.360;18.984;2023-02-12T15:33:29;49.78;;;28.55;;
43817;SDS011;29868;47.360;18.984;2023-02-12T15:35:56;47.50;;;26.55;;
43817;SDS011;29868;47.360;18.984;2023-02-12T15:38:32;51.10;;;27.92;;
43817;SDS011;29868;47.360;18.984;2023-02-12T15:41:00;44.63;;;26.40;;
43817;SDS011;29868;47.360;18.984;2023-02-12T15:43:27;45.33;;;25.90;;
43817;SDS011;29868;47.360;18.984;2023-02-12T15:45:56;43.40;;;23.23;;
43817;SDS011;29868;47.360;18.984;2023-02-12T15:48:22;42.83;;;24.15;;
43817;SDS011;29868;47.360;18.984;2023-02-12T15:53:22;41.00;;;23.73;;
43817;SDS011;29868;47.360;18.984;2023-02-12T15:55:52;46.58;;;24.00;;
43817;SDS011;29868;47.360;18.984;2023-02-12T16:00:51;40.70;;;20.90;;
43817;SDS011;29868;47.360;18.984;2023-02-12T16:03:25;55.45;;;23.63;;
43817;SDS011;29868;47.360;18.984;2023-02-12T16:06:06;44.92;;;23.02;;
43817;SDS011;29868;47.360;18.984;2023-02-12T16:08:45;54.83;;;24.70;;
43817;SDS011;29868;47.360;18.984;2023-02-12T16:11:23;61.65;;;24.08;;
43817;SDS011;29868;47.360;18.984;2023-02-12T16:13:52;46.85;;;22.13;;
43817;SDS011;29868;47.360;18.984;2023-02-12T16:16:24;49.33;;;24.00;;
43817;SDS011;29868;47.360;18.984;2023-02-12T16:21:40;48.10;;;24.48;;
43817;SDS011;29868;47.360;18.984;2023-02-12T16:24:11;43.40;;;23.05;;
43817;SDS011;29868;47.360;18.984;2023-02-12T16:26:47;48.28;;;23.08;;
43817;SDS011;29868;47.360;18.984;2023-02-12T16:29:14;47.67;;;22.23;;
43817;SDS011;29868;47.360;18.984;2023-02-12T16:31:51;48.38;;;23.63;;
43817;SDS011;29868;47.360;18.984;2023-02-12T16:37:56;54.83;;;24.75;;
43817;SDS011;29868;47.360;18.984;2023-02-12T16:45:31;53.60;;;25.15;;
43817;SDS011;29868;47.360;18.984;2023-02-12T16:50:37;52.97;;;26.05;;
43817;SDS011;29868;47.360;18.984;2023-02-12T16:56:02;49.03;;;24.50;;
43817;SDS011;29868;47.360;18.984;2023-02-12T16:58:29;53.00;;;26.90;;
43817;SDS011;29868;47.360;18.984;2023-02-12T17:00:55;57.05;;;27.60;;
43817;SDS011;29868;47.360;18.984;2023-02-12T17:03:22;61.75;;;31.48;;
43817;SDS011;29868;47.360;18.984;2023-02-12T17:05:48;53.47;;;27.27;;
43817;SDS011;29868;47.360;18.984;2023-02-12T17:08:16;61.40;;;29.90;;
43817;SDS011;29868;47.360;18.984;2023-02-12T17:10:44;66.60;;;31.08;;
43817;SDS011;29868;47.360;18.984;2023-02-12T17:13:12;63.28;;;30.45;;
43817;SDS011;29868;47.360;18.984;2023-02-12T17:18:26;61.60;;;29.08;;
43817;SDS011;29868;47.360;18.984;2023-02-12T17:20:56;64.32;;;33.00;;
43817;SDS011;29868;47.360;18.984;2023-02-12T17:23:24;76.43;;;35.90;;
43817;SDS011;29868;47.360;18.984;2023-02-12T17:25:50;78.25;;;38.45;;
43817;SDS011;29868;47.360;18.984;2023-02-12T17:28:15;96.90;;;46.28;;
43817;SDS011;29868;47.360;18.984;2023-02-12T17:30:41;96.65;;;46.50;;
43817;SDS011;29868;47.360;18.984;2023-02-12T17:33:07;96.40;;;44.95;;
43817;SDS011;29868;47.360;18.984;2023-02-12T17:35:32;92.68;;;43.30;;
43817;SDS011;29868;47.360;18.984;2023-02-12T17:37:58;103.95;;;47.45;;
43817;SDS011;29868;47.360;18.984;2023-02-12T17:40:23;99.10;;;44.65;;